createdAt,value
2018-02-10T00:00:25.863Z,47.43
2018-02-10T00:02:53.403Z,50.10
2018-02-10T00:05:20.922Z,48.70
2018-02-10T00:07:49.207Z,47.10
2018-02-10T00:10:16.728Z,50.33
2018-02-10T00:12:44.277Z,47.47
2018-02-10T00:15:12.628Z,47.03
2018-02-10T00:17:40.227Z,50.10
2018-02-10T00:20:08.508Z,50.67
2018-02-10T00:22:36.294Z,51.27
2018-02-10T00:25:03.829Z,48.87
2018-02-10T00:27:32.130Z,53.63
2018-02-10T00:30:00.484Z,50.53
2018-02-10T00:32:28.046Z,51.47
2018-02-10T00:34:55.739Z,53.40
2018-02-10T00:37:23.283Z,53.20
2018-02-10T00:39:51.087Z,53.03
2018-02-10T00:42:18.631Z,51.07
2018-02-10T00:44:46.184Z,51.53
2018-02-10T00:47:13.747Z,49.53
2018-02-10T00:49:41.306Z,52.57
2018-02-10T00:52:09.827Z,51.83
2018-02-10T00:54:37.347Z,55.43
2018-02-10T00:57:04.976Z,51.67
2018-02-10T00:59:32.502Z,52.13
2018-02-10T01:02:00.187Z,51.93
2018-02-10T01:04:29.871Z,53.07
2018-02-10T01:06:58.502Z,53.67
2018-02-10T01:09:26.043Z,56.30
2018-02-10T01:11:54.460Z,52.10
2018-02-10T01:14:22.078Z,54.70
2018-02-10T01:16:50.372Z,51.73
2018-02-10T01:19:18.062Z,55.40
2018-02-10T01:21:45.607Z,36.87
2018-02-10T01:24:13.186Z,48.67
2018-02-10T01:26:40.730Z,52.57
2018-02-10T01:29:08.322Z,52.73
2018-02-10T01:31:35.915Z,59.27
2018-02-10T01:34:03.525Z,56.80
2018-02-10T01:36:31.047Z,52.23
2018-02-10T01:38:58.585Z,51.23
2018-02-10T01:41:26.912Z,55.40
2018-02-10T01:43:54.495Z,58.30
2018-02-10T01:46:22.032Z,52.70
2018-02-10T01:48:49.685Z,54.30
2018-02-10T01:51:17.321Z,52.37
2018-02-10T01:53:45.653Z,50.97
2018-02-10T01:56:13.356Z,57.03
2018-02-10T01:58:41.056Z,54.30
2018-02-10T02:01:08.718Z,48.07
2018-02-10T02:03:36.267Z,55.77
2018-02-10T02:06:03.811Z,52.10
2018-02-10T02:08:31.346Z,53.57
2018-02-10T02:10:58.852Z,57.83
2018-02-10T02:13:26.405Z,57.40
2018-02-10T02:15:54.046Z,55.37
2018-02-10T02:18:21.572Z,56.53
2018-02-10T02:20:49.092Z,57.10
2018-02-10T02:23:16.618Z,54.40
2018-02-10T02:25:45.056Z,56.20
2018-02-10T02:28:12.901Z,59.67
2018-02-10T02:30:40.433Z,56.17
2018-02-10T02:33:08.056Z,55.53
2018-02-10T02:35:35.586Z,60.50
2018-02-10T02:38:03.102Z,57.47
2018-02-10T02:40:32.064Z,55.17
2018-02-10T02:42:59.591Z,58.13
2018-02-10T02:45:27.145Z,56.23
2018-02-10T02:47:54.671Z,55.87
2018-02-10T02:50:22.439Z,52.30
2018-02-10T02:52:50.715Z,55.00
2018-02-10T02:55:18.250Z,53.90
2018-02-10T02:57:45.774Z,52.90
2018-02-10T03:00:13.345Z,54.27
2018-02-10T03:02:40.847Z,55.20
2018-02-10T03:05:08.544Z,38.90
2018-02-10T03:07:36.163Z,51.90
2018-02-10T03:10:03.868Z,39.33
2018-02-10T03:12:31.373Z,38.63
2018-02-10T03:14:59.724Z,51.27
2018-02-10T03:17:27.454Z,57.47
2018-02-10T03:19:55.868Z,54.97
2018-02-10T03:22:23.462Z,54.93
2018-02-10T03:24:51.038Z,58.20
2018-02-10T03:27:18.726Z,55.00
2018-02-10T03:29:46.897Z,48.33
2018-02-10T03:32:14.403Z,53.80
2018-02-10T03:34:42.078Z,57.53
2018-02-10T03:37:09.611Z,56.13
2018-02-10T03:39:37.127Z,53.90
2018-02-10T03:42:04.857Z,54.60
2018-02-10T03:44:32.565Z,54.00
2018-02-10T03:47:00.151Z,53.47
2018-02-10T03:49:27.701Z,55.40
2018-02-10T03:51:55.332Z,55.57
2018-02-10T03:54:23.615Z,56.10
2018-02-10T03:56:51.511Z,55.03
2018-02-10T03:59:19.167Z,56.63
2018-02-10T04:01:46.708Z,55.67
2018-02-10T04:04:14.232Z,54.67
2018-02-10T04:06:42.875Z,54.37
2018-02-10T04:09:10.580Z,57.17
2018-02-10T04:11:38.130Z,52.87
2018-02-10T04:14:05.652Z,55.80
2018-02-10T04:16:34.007Z,53.07
2018-02-10T04:19:02.307Z,55.33
2018-02-10T04:21:29.864Z,53.60
2018-02-10T04:23:57.391Z,56.70
2018-02-10T04:26:25.675Z,53.83
2018-02-10T04:28:53.971Z,52.40
2018-02-10T04:31:21.503Z,50.40
2018-02-10T04:33:49.254Z,55.30
2018-02-10T04:36:16.816Z,52.10
2018-02-10T04:38:44.389Z,54.80
2018-02-10T04:41:11.908Z,54.70
2018-02-10T04:43:39.468Z,53.30
2018-02-10T04:46:07.875Z,52.77
2018-02-10T04:48:36.416Z,56.07
2018-02-10T04:51:04.059Z,57.60
2018-02-10T04:53:32.702Z,55.77
2018-02-10T04:56:00.449Z,55.97
2018-02-10T04:58:28.007Z,53.30
2018-02-10T05:00:55.566Z,55.40
2018-02-10T05:03:23.113Z,53.90
2018-02-10T05:05:50.750Z,52.60
2018-02-10T05:08:18.344Z,52.70
2018-02-10T05:10:46.247Z,53.97
2018-02-10T05:13:14.618Z,52.67
2018-02-10T05:15:42.267Z,51.53
2018-02-10T05:18:09.914Z,53.13
2018-02-10T05:20:37.459Z,53.50
2018-02-10T05:23:04.987Z,53.40
2018-02-10T05:25:32.522Z,50.90
2018-02-10T05:28:00.030Z,53.50
2018-02-10T05:30:27.536Z,54.33
2018-02-10T05:32:55.095Z,49.63
2018-02-10T05:35:23.224Z,52.30
2018-02-10T05:37:50.740Z,51.73
2018-02-10T05:40:18.461Z,52.47
2018-02-10T05:42:46.104Z,53.10
2018-02-10T05:45:13.616Z,46.37
2018-02-10T05:47:41.207Z,54.37
2018-02-10T05:50:08.733Z,51.77
2018-02-10T05:52:37.780Z,51.00
2018-02-10T05:55:05.433Z,50.40
2018-02-10T05:57:33.013Z,51.47
2018-02-10T06:00:00.541Z,51.73
2018-02-10T06:02:28.100Z,53.03
2018-02-10T06:04:55.641Z,53.40
2018-02-10T06:07:24.454Z,52.73
2018-02-10T06:09:51.977Z,50.77
2018-02-10T06:12:20.264Z,52.27
2018-02-10T06:14:47.795Z,55.27
2018-02-10T06:17:15.500Z,49.40
2018-02-10T06:19:43.051Z,53.07
2018-02-10T06:22:11.332Z,51.97
2018-02-10T06:24:38.862Z,52.57
2018-02-10T06:27:06.374Z,53.20
2018-02-10T06:29:33.903Z,51.93
2018-02-10T06:32:01.408Z,51.87
2018-02-10T06:34:28.916Z,54.17
2018-02-10T06:36:56.447Z,50.17
2018-02-10T06:39:24.180Z,51.53
2018-02-10T06:41:51.703Z,51.93
2018-02-10T06:44:20.012Z,50.77
2018-02-10T06:46:47.965Z,50.23
2018-02-10T06:49:15.525Z,49.77
2018-02-10T06:51:43.042Z,50.23
2018-02-10T06:54:11.342Z,52.20
2018-02-10T06:56:39.661Z,50.23
2018-02-10T06:59:07.519Z,50.67
2018-02-10T07:01:35.216Z,48.47
2018-02-10T07:04:02.744Z,51.67
2018-02-10T07:06:30.461Z,49.30
2018-02-10T07:08:59.364Z,51.70
2018-02-10T07:11:27.102Z,49.83
2018-02-10T07:13:54.636Z,47.10
2018-02-10T07:16:22.147Z,50.23
2018-02-10T07:18:50.521Z,49.80
2018-02-10T07:21:18.648Z,50.50
2018-02-10T07:23:46.191Z,49.43
2018-02-10T07:26:13.742Z,47.47
2018-02-10T07:28:41.337Z,48.17
2018-02-10T07:31:08.878Z,52.00
2018-02-10T07:33:37.138Z,50.10
2018-02-10T07:36:05.719Z,50.07
2018-02-10T07:38:33.264Z,51.93
2018-02-10T07:41:00.778Z,49.17
2018-02-10T07:43:28.640Z,50.07
2018-02-10T07:45:56.189Z,49.83
2018-02-10T07:48:23.870Z,48.43
2018-02-10T07:50:51.421Z,52.37
2018-02-10T07:53:19.086Z,51.27
2018-02-10T07:55:46.913Z,47.80
2018-02-10T07:58:14.426Z,50.90
2018-02-10T08:00:42.000Z,49.13
2018-02-10T08:03:10.279Z,51.03
2018-02-10T08:05:38.596Z,53.73
2018-02-10T08:08:06.248Z,48.07
2018-02-10T08:10:33.879Z,49.73
2018-02-10T08:13:01.423Z,50.63
2018-02-10T08:15:30.693Z,50.30
2018-02-10T08:17:58.219Z,50.87
2018-02-10T08:20:25.892Z,49.60
2018-02-10T08:22:53.407Z,49.73
2018-02-10T08:25:21.056Z,51.23
2018-02-10T08:27:48.595Z,49.80
2018-02-10T08:30:16.970Z,52.70
2018-02-10T08:32:44.510Z,82.27
2018-02-10T08:35:12.105Z,50.87
2018-02-10T08:37:39.767Z,48.87
2018-02-10T08:40:08.212Z,51.37
2018-02-10T08:42:35.743Z,50.93
2018-02-10T08:45:03.296Z,48.43
2018-02-10T08:47:30.812Z,49.87
2018-02-10T08:49:58.354Z,48.33
2018-02-10T08:52:25.871Z,48.33
2018-02-10T08:54:53.417Z,48.80
2018-02-10T08:57:21.811Z,47.33
2018-02-10T08:59:50.395Z,50.13
2018-02-10T09:02:17.937Z,47.53
2018-02-10T09:04:45.508Z,47.27
2018-02-10T09:07:13.025Z,48.33
2018-02-10T09:09:40.532Z,48.30
2018-02-10T09:12:09.668Z,47.10
2018-02-10T09:14:37.431Z,49.20
2018-02-10T09:17:04.971Z,47.23
2018-02-10T09:19:32.857Z,47.77
2018-02-10T09:22:00.421Z,47.23
2018-02-10T09:24:28.077Z,49.03
2018-02-10T09:26:55.603Z,47.93
2018-02-10T09:29:23.911Z,49.17
2018-02-10T09:31:51.474Z,48.67
2018-02-10T09:34:19.010Z,46.13
2018-02-10T09:36:47.304Z,48.97
2018-02-10T09:39:14.939Z,48.33
2018-02-10T09:41:43.226Z,47.23
2018-02-10T09:44:11.811Z,49.33
2018-02-10T09:46:39.332Z,47.87
2018-02-10T09:49:06.954Z,48.47
2018-02-10T09:51:34.529Z,48.37
2018-02-10T09:54:02.245Z,49.07
2018-02-10T09:56:29.774Z,48.80
2018-02-10T09:58:57.609Z,50.57
2018-02-10T10:01:25.180Z,48.23
2018-02-10T10:03:52.693Z,51.20
2018-02-10T10:06:21.005Z,49.90
2018-02-10T10:08:48.548Z,51.93
2018-02-10T10:11:17.046Z,47.67
2018-02-10T10:13:44.703Z,52.27
2018-02-10T10:16:12.233Z,47.80
2018-02-10T10:18:39.756Z,47.53
2018-02-10T10:21:07.318Z,49.27
2018-02-10T10:23:34.818Z,48.83
2018-02-10T10:26:03.200Z,48.27
2018-02-10T10:28:30.787Z,46.13
2018-02-10T10:30:58.323Z,45.77
2018-02-10T10:33:26.811Z,47.50
2018-02-10T10:35:54.407Z,47.83
2018-02-10T10:38:22.110Z,46.40
2018-02-10T10:40:49.663Z,46.13
2018-02-10T10:43:17.981Z,45.50
2018-02-10T10:45:45.504Z,45.60
2018-02-10T10:48:13.787Z,44.23
2018-02-10T10:50:42.106Z,43.47
2018-02-10T10:53:09.626Z,45.30
2018-02-10T10:55:38.036Z,43.13
2018-02-10T10:58:05.821Z,45.33
2018-02-10T11:00:33.375Z,43.60
2018-02-10T11:03:01.034Z,40.43
2018-02-10T11:05:29.646Z,42.00
2018-02-10T11:07:57.341Z,40.57
2018-02-10T11:10:25.644Z,40.93
2018-02-10T11:12:54.054Z,41.13
2018-02-10T11:15:21.845Z,40.80
2018-02-10T11:17:50.069Z,38.27
2018-02-10T11:20:17.665Z,38.13
2018-02-10T11:22:45.528Z,37.47
2018-02-10T11:25:14.904Z,38.00
2018-02-10T11:30:16.673Z,36.10
2018-02-10T11:32:44.218Z,35.70
2018-02-10T11:35:11.989Z,35.27
2018-02-10T11:37:39.736Z,33.83
2018-02-10T11:40:07.308Z,33.37
2018-02-10T11:42:34.952Z,34.20
2018-02-10T11:45:02.644Z,33.57
2018-02-10T11:47:30.363Z,35.87
2018-02-10T11:49:58.324Z,32.73
2018-02-10T11:52:26.679Z,38.07
2018-02-10T11:54:54.325Z,36.13
2018-02-10T11:57:21.942Z,35.37
2018-02-10T11:59:49.466Z,33.07
2018-02-10T12:02:17.221Z,35.53
2018-02-10T12:04:45.752Z,33.87
2018-02-10T12:07:14.057Z,30.50
2018-02-10T12:09:41.562Z,28.73
2018-02-10T12:12:09.143Z,30.50
2018-02-10T12:14:37.432Z,30.30
2018-02-10T12:17:06.087Z,28.73
2018-02-10T12:19:33.645Z,27.70
2018-02-10T12:22:01.920Z,26.27
2018-02-10T12:24:29.537Z,26.77
2018-02-10T12:26:57.103Z,28.57
2018-02-10T12:29:24.601Z,28.63
2018-02-10T12:31:52.921Z,28.93
2018-02-10T12:34:20.446Z,31.00
2018-02-10T12:36:48.000Z,28.77
2018-02-10T12:39:16.269Z,25.40
2018-02-10T12:41:44.916Z,24.23
2018-02-10T12:44:12.464Z,24.80
2018-02-10T12:46:40.239Z,23.90
2018-02-10T12:49:13.644Z,23.37
2018-02-10T12:51:42.953Z,22.57
2018-02-10T12:54:10.600Z,25.53
2018-02-10T12:56:38.481Z,27.90
2018-02-10T12:59:06.764Z,27.40
2018-02-10T13:01:34.627Z,28.90
2018-02-10T13:04:02.133Z,22.50
2018-02-10T13:06:30.554Z,24.27
2018-02-10T13:08:58.187Z,28.63
2018-02-10T13:11:25.847Z,28.97
2018-02-10T13:13:53.441Z,27.30
2018-02-10T13:16:21.034Z,28.10
2018-02-10T13:18:49.592Z,26.27
2018-02-10T13:21:17.170Z,27.27
2018-02-10T13:23:44.705Z,24.93
2018-02-10T13:26:12.208Z,26.97
2018-02-10T13:28:39.759Z,27.93
2018-02-10T13:31:07.574Z,29.77
2018-02-10T13:33:35.092Z,26.63
2018-02-10T13:36:02.959Z,29.50
2018-02-10T13:38:30.471Z,29.87
2018-02-10T13:40:58.009Z,35.63
2018-02-10T13:43:25.573Z,31.13
2018-02-10T13:45:53.563Z,28.97
2018-02-10T13:48:33.199Z,32.53
2018-02-10T13:51:00.736Z,32.17
2018-02-10T13:53:29.432Z,36.27
2018-02-10T13:55:56.954Z,29.17
2018-02-10T13:58:24.497Z,31.10
2018-02-10T14:00:52.004Z,29.37
2018-02-10T14:03:19.527Z,31.20
2018-02-10T14:05:47.946Z,32.97
2018-02-10T14:08:15.817Z,31.53
2018-02-10T14:10:43.326Z,30.90
2018-02-10T14:13:10.854Z,30.40
2018-02-10T14:15:38.469Z,30.77
2018-02-10T14:18:06.122Z,29.53
2018-02-10T14:20:33.687Z,31.90
2018-02-10T14:23:01.270Z,30.70
2018-02-10T14:25:29.766Z,31.03
2018-02-10T14:27:58.413Z,32.00
2018-02-10T14:30:26.876Z,27.10
2018-02-10T14:32:56.281Z,30.33
2018-02-10T14:35:28.223Z,30.03
2018-02-10T14:37:56.846Z,32.83
2018-02-10T14:40:25.010Z,28.77
2018-02-10T14:42:53.670Z,30.67
2018-02-10T14:45:22.235Z,31.53
2018-02-10T14:47:51.662Z,30.60
2018-02-10T14:50:21.722Z,32.73
2018-02-10T14:52:51.266Z,43.93
2018-02-10T14:55:19.667Z,32.23
2018-02-10T14:57:50.428Z,31.90
2018-02-10T15:00:18.189Z,32.13
2018-02-10T15:02:45.704Z,31.90
2018-02-10T15:05:13.252Z,31.13
2018-02-10T15:07:41.403Z,31.60
2018-02-10T15:10:08.936Z,30.57
2018-02-10T15:12:36.447Z,30.77
2018-02-10T15:15:04.009Z,32.53
2018-02-10T15:17:31.635Z,33.17
2018-02-10T15:20:01.186Z,34.27
2018-02-10T15:22:28.760Z,32.13
2018-02-10T15:24:56.349Z,32.43
2018-02-10T15:27:24.094Z,33.83
2018-02-10T15:30:03.529Z,34.53
2018-02-10T15:32:42.795Z,32.37
2018-02-10T15:35:10.350Z,32.67
2018-02-10T15:37:37.939Z,33.40
2018-02-10T15:40:06.289Z,36.87
2018-02-10T15:42:35.314Z,33.87
2018-02-10T15:45:03.833Z,32.80
2018-02-10T15:47:31.539Z,34.13
2018-02-10T15:49:59.852Z,33.23
2018-02-10T15:52:28.137Z,32.90
2018-02-10T15:54:55.706Z,34.07
2018-02-10T15:57:23.510Z,34.83
2018-02-10T15:59:51.128Z,31.67
2018-02-10T16:02:18.674Z,40.07
2018-02-10T16:04:46.200Z,33.37
2018-02-10T16:07:14.505Z,34.97
2018-02-10T16:09:42.008Z,34.80
2018-02-10T16:12:09.542Z,33.33
2018-02-10T16:14:37.144Z,33.40
2018-02-10T16:17:04.686Z,34.07
2018-02-10T16:19:32.425Z,35.03
2018-02-10T16:22:00.087Z,33.43
2018-02-10T16:24:28.075Z,31.63
2018-02-10T16:26:56.387Z,32.83
2018-02-10T16:29:23.922Z,32.33
2018-02-10T16:31:51.497Z,32.90
2018-02-10T16:34:19.034Z,34.23
2018-02-10T16:36:46.568Z,41.13
2018-02-10T16:39:14.735Z,33.63
2018-02-10T16:41:42.711Z,34.97
2018-02-10T16:44:10.272Z,33.77
2018-02-10T16:46:38.050Z,33.83
2018-02-10T16:49:05.590Z,30.77
2018-02-10T16:51:33.357Z,36.87
2018-02-10T16:54:01.662Z,34.90
2018-02-10T16:56:29.302Z,32.27
2018-02-10T16:58:56.944Z,34.00
2018-02-10T17:01:24.710Z,33.10
2018-02-10T17:03:52.429Z,32.07
2018-02-10T17:06:20.630Z,33.43
2018-02-10T17:08:48.280Z,32.80
2018-02-10T17:11:15.829Z,32.43
2018-02-10T17:13:43.442Z,33.00
2018-02-10T17:16:10.961Z,32.53
2018-02-10T17:18:38.492Z,32.50
2018-02-10T17:21:05.981Z,30.20
2018-02-10T17:23:33.598Z,30.03
2018-02-10T17:26:01.117Z,29.93
2018-02-10T17:28:28.776Z,31.37
2018-02-10T17:30:57.061Z,29.73
2018-02-10T17:33:24.620Z,30.47
2018-02-10T17:35:52.990Z,29.97
2018-02-10T17:38:20.499Z,29.37
2018-02-10T17:40:48.038Z,30.67
2018-02-10T17:43:15.553Z,29.33
2018-02-10T17:45:43.201Z,28.57
2018-02-10T17:48:10.798Z,30.13
2018-02-10T17:50:38.415Z,29.53
2018-02-10T17:53:05.923Z,30.77
2018-02-10T17:55:33.595Z,30.50
2018-02-10T17:58:01.249Z,30.10
2018-02-10T18:00:28.828Z,30.63
2018-02-10T18:02:56.803Z,29.13
2018-02-10T18:05:24.476Z,29.80
2018-02-10T18:07:52.015Z,30.37
2018-02-10T18:10:20.475Z,26.53
2018-02-10T18:12:47.989Z,27.97
2018-02-10T18:15:15.649Z,30.40
2018-02-10T18:17:43.392Z,28.17
2018-02-10T18:20:10.939Z,28.37
2018-02-10T18:22:38.614Z,33.17
2018-02-10T18:25:06.478Z,30.20
2018-02-10T18:27:34.056Z,28.27
2018-02-10T18:30:01.617Z,29.43
2018-02-10T18:32:29.142Z,29.27
2018-02-10T18:34:56.708Z,28.20
2018-02-10T18:37:24.237Z,30.60
2018-02-10T18:39:51.803Z,30.17
2018-02-10T18:42:19.607Z,28.83
2018-02-10T18:44:47.146Z,28.83
2018-02-10T18:47:14.692Z,29.00
2018-02-10T18:49:43.064Z,29.10
2018-02-10T18:52:11.566Z,29.43
2018-02-10T18:54:39.081Z,28.77
2018-02-10T18:57:07.242Z,28.73
2018-02-10T18:59:34.760Z,31.13
2018-02-10T19:02:03.587Z,29.40
2018-02-10T19:04:31.165Z,48.50
2018-02-10T19:06:58.712Z,30.03
2018-02-10T19:09:26.241Z,31.23
2018-02-10T19:11:53.776Z,28.37
2018-02-10T19:14:22.103Z,28.90
2018-02-10T19:16:49.622Z,30.20
2018-02-10T19:19:17.162Z,29.17
2018-02-10T19:21:51.088Z,30.33
2018-02-10T19:24:19.562Z,30.33
2018-02-10T19:26:47.907Z,30.73
2018-02-10T19:29:15.409Z,31.07
2018-02-10T19:31:43.710Z,31.20
2018-02-10T19:34:11.220Z,29.03
2018-02-10T19:36:39.170Z,30.67
2018-02-10T19:39:06.697Z,29.03
2018-02-10T19:41:34.221Z,29.60
2018-02-10T19:44:02.568Z,29.43
2018-02-10T19:46:30.150Z,28.87
2018-02-10T19:48:57.934Z,28.83
2018-02-10T19:51:25.455Z,29.47
2018-02-10T19:53:53.442Z,29.97
2018-02-10T19:56:21.910Z,28.27
2018-02-10T19:58:50.354Z,30.43
2018-02-10T20:01:17.911Z,28.80
2018-02-10T20:03:45.675Z,30.67
2018-02-10T20:06:13.220Z,30.40
2018-02-10T20:08:41.090Z,31.53
2018-02-10T20:11:10.219Z,32.10
2018-02-10T20:13:37.856Z,32.10
2018-02-10T20:16:05.416Z,29.50
2018-02-10T20:18:33.193Z,31.10
2018-02-10T20:21:00.763Z,36.77
2018-02-10T20:23:28.677Z,32.13
2018-02-10T20:25:57.065Z,34.77
2018-02-10T20:28:25.386Z,31.97
2018-02-10T20:30:52.907Z,31.17
2018-02-10T20:33:21.608Z,32.40
2018-02-10T20:35:49.125Z,41.97
2018-02-10T20:38:17.036Z,35.07
2018-02-10T20:40:44.551Z,34.57
2018-02-10T20:43:12.471Z,32.87
2018-02-10T20:45:40.319Z,30.03
2018-02-10T20:48:07.850Z,30.60
2018-02-10T20:50:36.146Z,30.43
2018-02-10T20:53:04.434Z,30.77
2018-02-10T20:55:32.110Z,29.90
2018-02-10T20:57:59.921Z,31.70
2018-02-10T21:00:28.998Z,36.67
2018-02-10T21:02:56.554Z,31.70
2018-02-10T21:05:24.094Z,29.40
2018-02-10T21:07:51.598Z,38.27
2018-02-10T21:10:19.134Z,30.50
2018-02-10T21:12:46.981Z,29.33
2018-02-10T21:15:14.849Z,29.30
2018-02-10T21:17:42.901Z,30.60
2018-02-10T21:20:10.609Z,35.27
2018-02-10T21:22:38.127Z,32.03
2018-02-10T21:25:05.640Z,29.20
2018-02-10T21:27:33.170Z,30.20
2018-02-10T21:30:00.822Z,29.70
2018-02-10T21:32:28.481Z,31.60
2018-02-10T21:34:56.035Z,31.77
2018-02-10T21:37:23.650Z,32.43
2018-02-10T21:39:52.071Z,30.10
2018-02-10T21:42:19.671Z,30.47
2018-02-10T21:44:48.115Z,43.67
2018-02-10T21:47:16.467Z,29.10
2018-02-10T21:49:44.023Z,31.50
2018-02-10T21:52:12.339Z,33.50
2018-02-10T21:54:40.352Z,30.73
2018-02-10T21:57:07.899Z,32.17
2018-02-10T21:59:35.638Z,32.40
2018-02-10T22:02:03.251Z,33.33
2018-02-10T22:04:31.580Z,33.67
2018-02-10T22:06:59.491Z,33.43
2018-02-10T22:09:27.338Z,33.03
2018-02-10T22:11:55.177Z,30.03
2018-02-10T22:14:22.715Z,29.77
2018-02-10T22:16:51.115Z,30.73
2018-02-10T22:19:18.987Z,32.33
2018-02-10T22:21:47.016Z,31.87
2018-02-10T22:24:15.446Z,30.63
2018-02-10T22:26:43.001Z,38.90
2018-02-10T22:29:10.521Z,30.70
2018-02-10T22:31:38.145Z,42.20
2018-02-10T22:34:05.704Z,31.47
2018-02-10T22:36:33.971Z,36.10
2018-02-10T22:39:01.530Z,39.57
2018-02-10T22:41:29.094Z,32.83
2018-02-10T22:43:57.849Z,33.57
2018-02-10T22:46:25.516Z,31.23
2018-02-10T22:48:53.062Z,31.80
2018-02-10T22:51:21.025Z,32.87
2018-02-10T22:53:48.579Z,34.30
2018-02-10T22:56:16.985Z,31.53
2018-02-10T22:58:44.505Z,31.43
2018-02-10T23:01:16.945Z,31.03
2018-02-10T23:03:44.528Z,32.10
2018-02-10T23:06:12.084Z,32.00
2018-02-10T23:08:39.602Z,33.57
2018-02-10T23:11:07.176Z,34.33
2018-02-10T23:13:34.821Z,37.70
2018-02-10T23:16:02.344Z,37.20
2018-02-10T23:18:29.861Z,40.60
2018-02-10T23:20:57.383Z,40.10
2018-02-10T23:23:24.943Z,37.43
2018-02-10T23:25:52.736Z,36.43
2018-02-10T23:28:20.414Z,44.50
2018-02-10T23:30:48.230Z,37.87
2018-02-10T23:33:16.528Z,42.40
2018-02-10T23:35:44.205Z,42.57
2018-02-10T23:38:11.879Z,35.47
2018-02-10T23:40:39.614Z,35.63
2018-02-10T23:43:07.159Z,40.20
2018-02-10T23:45:35.430Z,44.27
2018-02-10T23:48:03.132Z,33.13
2018-02-10T23:50:31.403Z,34.03
2018-02-10T23:52:58.966Z,31.90
2018-02-10T23:55:26.471Z,33.67
2018-02-10T23:57:54.522Z,32.37
